Time;durP1;ratioP1;P1;durP2;ratioP2;P2;SDS_P1;SDS_P2;PMS_P1;PMS_P2;Temp;Humidity;BMP_temperature;BMP_pressure;BME280_temperature;BME280_humidity;BME280_pressure;Samples;Min_cycle;Max_cycle;Signal;HPM_P1;HPM_P2
2021/05/22 00:03:39;;;;;;;1.70;0.73;;;;;;;;;;10521532;28;20262;-72
2021/05/22 00:08:42;;;;;;;0.77;0.60;;;;;;;;;;10523128;28;20195;-74
2021/05/22 00:13:45;;;;;;;1.30;0.60;;;;;;;;;;10522216;28;20211;-73
2021/05/22 00:18:48;;;;;;;2.47;1.00;;;;;;;;;;10512713;28;20196;-74
2021/05/22 00:23:50;;;;;;;1.80;0.80;;;;;;;;;;10518404;28;20207;-72
2021/05/22 00:28:53;;;;;;;1.63;0.60;;;;;;;;;;10520910;28;20585;-72
2021/05/22 00:33:55;;;;;;;2.03;0.80;;;;;;;;;;10529241;28;20215;-73
2021/05/22 00:38:58;;;;;;;2.20;1.00;;;;;;;;;;10526732;28;20198;-71
2021/05/22 00:44:01;;;;;;;1.70;0.90;;;;;;;;;;10530367;28;20237;-72
2021/05/22 00:49:07;;;;;;;1.80;0.90;;;;;;;;;;10528378;28;20268;-72
2021/05/22 00:54:09;;;;;;;1.27;0.47;;;;;;;;;;10525181;28;20610;-71
2021/05/22 00:59:14;;;;;;;3.23;0.97;;;;;;;;;;10527246;28;20551;-71
2021/05/22 01:04:19;;;;;;;1.10;0.53;;;;;;;;;;10534149;28;20704;-70
2021/05/22 01:09:22;;;;;;;1.83;0.23;;;;;;;;;;10525682;28;20724;-69
2021/05/22 01:14:27;;;;;;;1.97;0.90;;;;;;;;;;10530877;28;20220;-71
2021/05/22 01:19:34;;;;;;;1.87;0.90;;;;;;;;;;10527247;28;20211;-70
2021/05/22 01:24:42;;;;;;;0.43;0.40;;;;;;;;;;10539228;28;20281;-71
2021/05/22 01:29:45;;;;;;;0.87;0.43;;;;;;;;;;10540404;28;20946;-71
2021/05/22 01:34:48;;;;;;;2.57;0.70;;;;;;;;;;10525831;28;20699;-69
2021/05/22 01:39:51;;;;;;;2.03;0.97;;;;;;;;;;10520110;28;20582;-70
2021/05/22 01:44:54;;;;;;;0.07;0.07;;;;;;;;;;10527398;28;20314;-69
2021/05/22 01:49:57;;;;;;;1.67;0.37;;;;;;;;;;10520909;28;20606;-71
2021/05/22 01:55:02;;;;;;;1.77;0.60;;;;;;;;;;10520751;28;20220;-71
2021/05/22 02:00:07;;;;;;;1.60;0.60;;;;;;;;;;10521005;28;20196;-67
2021/05/22 02:05:10;;;;;;;0.67;0.43;;;;;;;;;;10537031;28;20195;-70
2021/05/22 02:10:13;;;;;;;0.50;0.20;;;;;;;;;;10533305;28;20602;-69
2021/05/22 02:15:17;;;;;;;0.37;0.30;;;;;;;;;;10519480;28;20192;-69
2021/05/22 02:20:20;;;;;;;0.50;0.30;;;;;;;;;;10522304;28;20594;-69
2021/05/22 02:25:23;;;;;;;0.20;0.20;;;;;;;;;;10515191;28;20193;-71
2021/05/22 02:30:27;;;;;;;0.17;0.17;;;;;;;;;;10531697;28;20290;-70
2021/05/22 02:35:30;;;;;;;0.40;0.30;;;;;;;;;;10518695;28;20195;-69
2021/05/22 02:40:33;;;;;;;0.73;0.40;;;;;;;;;;10511022;28;20582;-69
2021/05/22 02:45:37;;;;;;;0.23;0.13;;;;;;;;;;10533665;28;20203;-69
2021/05/22 02:50:41;;;;;;;1.20;0.30;;;;;;;;;;10528866;28;20346;-68
2021/05/22 02:55:44;;;;;;;0.17;0.17;;;;;;;;;;10527904;28;20199;-69
2021/05/22 03:00:48;;;;;;;0.33;0.20;;;;;;;;;;10525126;28;20239;-69
2021/05/22 03:05:51;;;;;;;0.70;0.40;;;;;;;;;;10520503;28;20200;-70
2021/05/22 03:10:54;;;;;;;0.53;0.23;;;;;;;;;;10523589;28;20266;-70
2021/05/22 03:15:57;;;;;;;0.20;0.20;;;;;;;;;;10524937;28;20196;-69
2021/05/22 03:21:01;;;;;;;0.67;0.27;;;;;;;;;;10510396;28;20294;-70
2021/05/22 03:26:03;;;;;;;0.60;0.30;;;;;;;;;;10512479;28;20534;-69
2021/05/22 03:31:07;;;;;;;0.73;0.40;;;;;;;;;;10520602;28;20671;-70
2021/05/22 03:36:09;;;;;;;0.50;0.33;;;;;;;;;;10512162;28;20235;-69
2021/05/22 03:41:12;;;;;;;0.70;0.23;;;;;;;;;;10523766;28;20734;-70
2021/05/22 03:46:16;;;;;;;0.57;0.20;;;;;;;;;;10530617;28;20188;-71
2021/05/22 03:51:19;;;;;;;0.40;0.33;;;;;;;;;;10525799;28;20219;-70
2021/05/22 03:56:22;;;;;;;1.23;0.40;;;;;;;;;;10523601;28;20282;-69
2021/05/22 04:01:32;;;;;;;0.87;0.30;;;;;;;;;;10523035;28;20310;-69
2021/05/22 04:06:34;;;;;;;1.63;0.30;;;;;;;;;;10522809;28;20268;-69
2021/05/22 04:11:37;;;;;;;0.30;0.30;;;;;;;;;;10525350;28;20219;-68
2021/05/22 04:17:00;;;;;;;0.13;0.13;;;;;;;;;;10520581;28;20207;-70
2021/05/22 04:22:22;;;;;;;1.53;0.43;;;;;;;;;;10529129;28;20216;-69
2021/05/22 04:27:26;;;;;;;1.27;0.40;;;;;;;;;;10530407;28;20317;-70
2021/05/22 04:32:29;;;;;;;0.23;0.23;;;;;;;;;;10522604;28;20220;-70
2021/05/22 04:37:32;;;;;;;0.60;0.30;;;;;;;;;;10527477;28;20220;-70
2021/05/22 04:42:35;;;;;;;0.70;0.30;;;;;;;;;;10523973;28;20284;-71
2021/05/22 04:47:39;;;;;;;0.40;0.40;;;;;;;;;;10531779;28;20231;-70
2021/05/22 04:52:41;;;;;;;1.10;0.43;;;;;;;;;;10520271;28;22096;-69
2021/05/22 04:57:44;;;;;;;1.27;0.50;;;;;;;;;;10526954;28;20540;-70
2021/05/22 05:02:47;;;;;;;1.37;0.50;;;;;;;;;;10531780;28;20281;-70
2021/05/22 05:07:50;;;;;;;0.47;0.20;;;;;;;;;;10524049;28;20196;-68
2021/05/22 05:12:53;;;;;;;0.97;0.17;;;;;;;;;;10531274;28;20291;-70
2021/05/22 05:17:56;;;;;;;0.53;0.40;;;;;;;;;;10516321;28;20215;-68
2021/05/22 05:22:59;;;;;;;0.30;0.30;;;;;;;;;;10523091;28;20215;-70
2021/05/22 05:28:01;;;;;;;0.43;0.40;;;;;;;;;;10528768;28;20274;-69
2021/05/22 05:33:05;;;;;;;1.43;0.43;;;;;;;;;;10525797;28;20238;-68
2021/05/22 05:38:07;;;;;;;0.70;0.50;;;;;;;;;;10517545;28;20261;-66
2021/05/22 05:43:10;;;;;;;1.10;0.53;;;;;;;;;;10532418;28;20211;-68
2021/05/22 05:48:14;;;;;;;0.90;0.30;;;;;;;;;;10524199;28;20198;-69
2021/05/22 05:53:17;;;;;;;1.03;0.40;;;;;;;;;;10521810;28;20234;-69
2021/05/22 05:58:19;;;;;;;0.77;0.43;;;;;;;;;;10525768;28;20666;-68
2021/05/22 06:03:28;;;;;;;1.53;0.67;;;;;;;;;;10519331;28;20212;-69
2021/05/22 06:08:31;;;;;;;1.13;0.60;;;;;;;;;;10525284;28;20231;-69
2021/05/22 06:13:35;;;;;;;0.83;0.43;;;;;;;;;;10534569;28;20724;-69
2021/05/22 06:18:39;;;;;;;1.83;0.60;;;;;;;;;;10520325;28;20559;-69
2021/05/22 06:23:41;;;;;;;0.97;0.43;;;;;;;;;;10534885;28;20220;-70
2021/05/22 06:28:43;;;;;;;1.07;0.60;;;;;;;;;;10511811;28;20189;-70
2021/05/22 06:33:46;;;;;;;2.23;0.60;;;;;;;;;;10521465;28;20568;-69
2021/05/22 06:38:48;;;;;;;2.10;0.50;;;;;;;;;;10518952;28;20316;-71
2021/05/22 06:43:51;;;;;;;0.60;0.53;;;;;;;;;;10517615;28;20302;-66
2021/05/22 06:48:54;;;;;;;3.33;0.73;;;;;;;;;;10517980;28;20184;-67
2021/05/22 06:53:56;;;;;;;1.50;0.70;;;;;;;;;;10518641;28;20220;-68
2021/05/22 06:58:58;;;;;;;3.07;0.70;;;;;;;;;;10520443;28;20253;-68
2021/05/22 07:04:00;;;;;;;3.07;0.53;;;;;;;;;;10516076;28;20219;-68
2021/05/22 07:09:03;;;;;;;3.10;0.73;;;;;;;;;;10515816;28;20457;-68
2021/05/22 07:14:05;;;;;;;1.50;0.40;;;;;;;;;;10520647;28;20660;-68
2021/05/22 07:19:28;;;;;;;1.37;0.47;;;;;;;;;;10507059;28;20215;-69
2021/05/22 07:24:30;;;;;;;1.47;0.60;;;;;;;;;;10518590;28;20214;-68
2021/05/22 07:29:32;;;;;;;3.23;0.90;;;;;;;;;;10515085;28;20196;-69
2021/05/22 07:34:35;;;;;;;4.23;1.00;;;;;;;;;;10517675;28;20215;-69
2021/05/22 07:39:37;;;;;;;3.67;0.80;;;;;;;;;;10519472;28;20580;-69
2021/05/22 07:44:39;;;;;;;2.40;0.80;;;;;;;;;;10507591;28;20603;-69
2021/05/22 07:49:42;;;;;;;2.90;1.10;;;;;;;;;;10511955;28;20275;-68
2021/05/22 07:54:44;;;;;;;3.83;0.90;;;;;;;;;;10511681;28;20229;-69
2021/05/22 07:59:46;;;;;;;2.78;0.73;;;;;;;;;;10511867;28;20279;-69
2021/05/22 08:04:49;;;;;;;3.83;1.10;;;;;;;;;;10502517;28;20214;-69
2021/05/22 08:09:51;;;;;;;2.33;1.00;;;;;;;;;;10509914;28;20944;-69
2021/05/22 08:14:53;;;;;;;5.22;1.23;;;;;;;;;;10511370;28;20519;-70
2021/05/22 08:19:56;;;;;;;2.90;1.30;;;;;;;;;;10521306;28;20687;-71
2021/05/22 08:24:58;;;;;;;2.20;0.93;;;;;;;;;;10516563;28;20223;-69
2021/05/22 08:30:00;;;;;;;4.47;1.40;;;;;;;;;;10521599;28;20690;-70
2021/05/22 08:35:04;;;;;;;2.47;1.00;;;;;;;;;;10512930;28;20629;-70
2021/05/22 08:40:07;;;;;;;2.80;1.10;;;;;;;;;;10521895;28;20196;-71
2021/05/22 08:45:11;;;;;;;3.30;1.40;;;;;;;;;;10512181;28;20288;-71
2021/05/22 08:50:14;;;;;;;3.90;1.08;;;;;;;;;;10512176;28;20571;-71
2021/05/22 08:55:16;;;;;;;3.35;1.30;;;;;;;;;;10511364;28;20687;-72
2021/05/22 09:00:21;;;;;;;3.92;1.20;;;;;;;;;;10518402;28;20191;-72
2021/05/22 09:05:24;;;;;;;5.15;1.40;;;;;;;;;;10528844;28;20198;-72
2021/05/22 09:10:28;;;;;;;2.88;1.15;;;;;;;;;;10516795;28;20255;-72
2021/05/22 09:15:31;;;;;;;3.67;1.20;;;;;;;;;;10523762;28;20216;-70
2021/05/22 09:20:35;;;;;;;3.00;1.10;;;;;;;;;;10526389;28;20306;-72
2021/05/22 09:25:37;;;;;;;3.90;1.25;;;;;;;;;;10524109;28;20215;-72
2021/05/22 09:30:40;;;;;;;3.38;1.10;;;;;;;;;;10525002;28;20831;-69
2021/05/22 09:35:49;;;;;;;2.88;1.20;;;;;;;;;;10522891;28;20247;-70
2021/05/22 09:40:51;;;;;;;4.32;1.33;;;;;;;;;;10524058;28;20227;-73
2021/05/22 09:45:53;;;;;;;4.85;1.70;;;;;;;;;;10521016;28;20282;-69
2021/05/22 09:50:57;;;;;;;1.92;1.00;;;;;;;;;;10518527;28;20216;-69
2021/05/22 09:56:26;;;;;;;4.03;1.20;;;;;;;;;;10521949;28;20315;-70
2021/05/22 10:01:30;;;;;;;2.97;1.10;;;;;;;;;;10520796;28;20822;-71
2021/05/22 10:06:42;;;;;;;3.75;1.30;;;;;;;;;;10526687;28;20200;-70
2021/05/22 10:12:00;;;;;;;2.35;1.10;;;;;;;;;;10521209;28;20226;-70
2021/05/22 10:17:03;;;;;;;2.00;1.15;;;;;;;;;;10521050;28;20191;-70
2021/05/22 10:22:07;;;;;;;4.18;1.85;;;;;;;;;;10520272;28;20216;-70
2021/05/22 10:27:10;;;;;;;3.40;1.10;;;;;;;;;;10516880;28;20240;-69
2021/05/22 10:32:21;;;;;;;2.88;1.35;;;;;;;;;;10520308;28;20211;-69
2021/05/22 10:37:41;;;;;;;2.33;1.00;;;;;;;;;;10526605;28;20211;-68
2021/05/22 10:42:45;;;;;;;1.25;1.10;;;;;;;;;;10523437;28;20229;-68
2021/05/22 10:47:47;;;;;;;3.03;1.40;;;;;;;;;;10522983;28;20223;-69
2021/05/22 10:53:10;;;;;;;2.83;1.20;;;;;;;;;;10516586;28;20214;-70
2021/05/22 10:58:12;;;;;;;1.17;0.80;;;;;;;;;;10519565;28;20204;-69
2021/05/22 11:03:14;;;;;;;1.77;1.15;;;;;;;;;;10516207;28;20757;-70
2021/05/22 11:08:30;;;;;;;1.50;1.20;;;;;;;;;;10519913;28;20195;-70
2021/05/22 11:13:37;;;;;;;2.03;0.82;;;;;;;;;;10521924;28;20581;-71
2021/05/22 11:18:58;;;;;;;1.67;0.90;;;;;;;;;;10513108;28;20268;-69
2021/05/22 11:24:08;;;;;;;1.20;0.80;;;;;;;;;;10523026;28;20235;-70
2021/05/22 11:29:11;;;;;;;1.85;0.85;;;;;;;;;;10514711;28;20199;-70
2021/05/22 11:34:26;;;;;;;2.95;1.20;;;;;;;;;;10519032;28;20616;-71
2021/05/22 11:39:38;;;;;;;2.92;1.23;;;;;;;;;;10520266;28;20191;-69
2021/05/22 11:44:51;;;;;;;3.08;1.30;;;;;;;;;;10512720;28;20207;-70
2021/05/22 11:49:53;;;;;;;2.67;1.27;;;;;;;;;;10520498;28;20299;-70
2021/05/22 11:54:55;;;;;;;2.40;1.30;;;;;;;;;;10521190;28;20207;-70
2021/05/22 11:59:59;;;;;;;0.75;0.75;;;;;;;;;;10525764;28;20199;-70
2021/05/22 12:05:01;;;;;;;1.98;0.80;;;;;;;;;;10523849;28;20212;-70
2021/05/22 12:10:09;;;;;;;2.90;1.13;;;;;;;;;;10522340;28;20457;-69
2021/05/22 12:15:22;;;;;;;3.45;1.23;;;;;;;;;;10522437;28;20215;-71
2021/05/22 12:20:25;;;;;;;2.35;1.15;;;;;;;;;;10524110;28;20192;-71
2021/05/22 12:25:30;;;;;;;3.60;1.30;;;;;;;;;;10524822;28;20922;-70
2021/05/22 12:30:33;;;;;;;1.60;0.90;;;;;;;;;;10528039;28;20211;-72
2021/05/22 12:35:35;;;;;;;2.33;1.13;;;;;;;;;;10531487;28;20671;-71
2021/05/22 12:40:48;;;;;;;5.72;1.10;;;;;;;;;;10531365;28;20219;-69
2021/05/22 12:45:51;;;;;;;3.92;1.00;;;;;;;;;;10524656;28;20184;-71
2021/05/22 12:50:53;;;;;;;3.22;1.15;;;;;;;;;;10528473;28;20683;-72
2021/05/22 12:56:02;;;;;;;1.30;0.90;;;;;;;;;;10531505;28;20199;-70
2021/05/22 13:01:16;;;;;;;2.17;1.00;;;;;;;;;;10531759;28;20212;-70
2021/05/22 13:06:27;;;;;;;2.22;0.98;;;;;;;;;;10528123;28;20233;-71
2021/05/22 13:11:29;;;;;;;2.97;1.58;;;;;;;;;;10532105;28;20273;-70
2021/05/22 13:16:32;;;;;;;2.70;1.17;;;;;;;;;;10529408;28;20274;-68
2021/05/22 13:21:35;;;;;;;2.47;1.10;;;;;;;;;;10531322;28;20917;-69
2021/05/22 13:26:38;;;;;;;1.48;0.88;;;;;;;;;;10529020;28;20316;-70
2021/05/22 13:31:41;;;;;;;2.17;0.90;;;;;;;;;;10525713;28;20717;-70
2021/05/22 13:36:44;;;;;;;2.47;1.00;;;;;;;;;;10527939;28;20218;-70
2021/05/22 13:41:47;;;;;;;2.28;1.00;;;;;;;;;;10525930;28;20269;-69
2021/05/22 13:46:50;;;;;;;2.85;1.00;;;;;;;;;;10524306;28;20663;-71
2021/05/22 13:51:52;;;;;;;1.98;0.90;;;;;;;;;;10521124;28;20215;-70
2021/05/22 13:56:54;;;;;;;3.40;1.00;;;;;;;;;;10525219;28;20644;-69
2021/05/22 14:01:57;;;;;;;1.95;0.80;;;;;;;;;;10524995;28;20292;-69
2021/05/22 14:06:59;;;;;;;2.70;1.02;;;;;;;;;;10520660;28;20200;-69
2021/05/22 14:12:01;;;;;;;3.20;0.93;;;;;;;;;;10525718;28;20219;-69
2021/05/22 14:17:04;;;;;;;1.17;0.70;;;;;;;;;;10526283;28;20272;-70
2021/05/22 14:22:06;;;;;;;2.57;0.90;;;;;;;;;;10527608;28;20222;-70
2021/05/22 14:27:08;;;;;;;2.23;1.00;;;;;;;;;;10526798;28;20230;-69
2021/05/22 14:32:11;;;;;;;1.60;0.80;;;;;;;;;;10519986;28;20251;-70
2021/05/22 14:37:13;;;;;;;0.60;0.60;;;;;;;;;;10529374;28;20208;-68
2021/05/22 14:42:15;;;;;;;1.10;0.75;;;;;;;;;;10528453;28;20220;-68
2021/05/22 14:47:18;;;;;;;2.53;0.90;;;;;;;;;;10529628;28;20316;-69
2021/05/22 14:52:20;;;;;;;2.07;0.83;;;;;;;;;;10528203;28;20215;-70
2021/05/22 14:57:22;;;;;;;2.33;0.90;;;;;;;;;;10516989;28;20567;-71
2021/05/22 15:02:26;;;;;;;0.90;0.70;;;;;;;;;;10519747;28;20212;-70
2021/05/22 15:07:29;;;;;;;1.57;0.80;;;;;;;;;;10519723;28;20503;-69
2021/05/22 15:12:31;;;;;;;3.00;0.70;;;;;;;;;;10524256;28;20253;-70
2021/05/22 15:17:35;;;;;;;4.13;1.00;;;;;;;;;;10525304;28;20208;-70
2021/05/22 15:22:37;;;;;;;1.47;0.73;;;;;;;;;;10519598;28;20219;-70
2021/05/22 15:27:39;;;;;;;1.00;0.90;;;;;;;;;;10526928;28;20184;-71
2021/05/22 15:32:42;;;;;;;2.53;0.80;;;;;;;;;;10524116;28;20243;-70
2021/05/22 15:37:45;;;;;;;1.90;0.80;;;;;;;;;;10523906;28;20216;-70
2021/05/22 15:42:47;;;;;;;2.23;1.07;;;;;;;;;;10524865;28;20286;-70
2021/05/22 15:48:29;;;;;;;1.60;0.50;;;;;;;;;;10523314;28;20191;-70
2021/05/22 15:58:50;;;;;;;2.37;0.90;;;;;;;;;;10479872;28;20582;-70
2021/05/22 16:04:02;;;;;;;2.50;0.87;;;;;;;;;;10528356;28;20272;-70
2021/05/22 16:09:05;;;;;;;2.43;0.90;;;;;;;;;;10527316;28;20258;-70
2021/05/22 16:14:07;;;;;;;2.93;0.90;;;;;;;;;;10530572;28;20214;-70
2021/05/22 16:19:10;;;;;;;3.43;0.90;;;;;;;;;;10525615;28;20230;-70
2021/05/22 16:24:13;;;;;;;1.57;0.80;;;;;;;;;;10526268;28;20215;-71
2021/05/22 16:29:15;;;;;;;0.57;0.50;;;;;;;;;;10518590;28;20196;-70
2021/05/22 16:34:18;;;;;;;1.03;0.53;;;;;;;;;;10521007;28;20222;-70
2021/05/22 16:39:20;;;;;;;3.23;1.07;;;;;;;;;;10526911;28;20550;-69
2021/05/22 16:44:22;;;;;;;1.20;0.67;;;;;;;;;;10532000;28;20212;-69
2021/05/22 16:49:25;;;;;;;2.77;0.70;;;;;;;;;;10526607;28;20257;-70
2021/05/22 16:54:27;;;;;;;2.07;0.80;;;;;;;;;;10533372;28;20374;-69
2021/05/22 16:59:29;;;;;;;0.90;0.80;;;;;;;;;;10524250;28;20651;-69
2021/05/22 17:04:32;;;;;;;1.33;0.70;;;;;;;;;;10521861;28;20264;-69
2021/05/22 17:09:34;;;;;;;1.23;0.90;;;;;;;;;;10522332;28;20283;-71
2021/05/22 17:14:36;;;;;;;1.10;0.77;;;;;;;;;;10527235;28;20623;-70
2021/05/22 17:19:39;;;;;;;2.00;0.67;;;;;;;;;;10523545;28;20282;-69
2021/05/22 17:24:41;;;;;;;2.57;0.80;;;;;;;;;;10526585;28;20220;-70
2021/05/22 17:29:44;;;;;;;1.97;0.83;;;;;;;;;;10518277;28;20197;-69
2021/05/22 17:34:46;;;;;;;3.37;0.90;;;;;;;;;;10523055;28;20230;-68
2021/05/22 17:39:48;;;;;;;3.43;1.10;;;;;;;;;;10521053;28;20261;-71
2021/05/22 17:44:50;;;;;;;1.73;0.80;;;;;;;;;;10527467;28;20207;-69
2021/05/22 17:49:53;;;;;;;1.13;0.80;;;;;;;;;;10529524;28;20570;-71
2021/05/22 17:54:56;;;;;;;1.20;0.80;;;;;;;;;;10530132;28;20314;-69
2021/05/22 17:59:58;;;;;;;2.73;0.87;;;;;;;;;;10519010;28;20241;-70
2021/05/22 18:05:01;;;;;;;1.63;0.73;;;;;;;;;;10524123;28;20200;-70
2021/05/22 18:10:04;;;;;;;1.67;0.77;;;;;;;;;;10521409;28;20655;-70
2021/05/22 18:15:07;;;;;;;1.80;0.70;;;;;;;;;;10527039;28;20290;-68
2021/05/22 18:20:12;;;;;;;2.33;1.00;;;;;;;;;;10519338;28;20581;-66
2021/05/22 18:25:15;;;;;;;3.30;1.17;;;;;;;;;;10523114;28;20191;-68
2021/05/22 18:30:17;;;;;;;4.67;1.97;;;;;;;;;;10523166;28;20198;-68
2021/05/22 18:35:20;;;;;;;5.67;2.37;;;;;;;;;;10519411;28;20243;-69
2021/05/22 18:40:24;;;;;;;2.70;1.00;;;;;;;;;;10521949;28;20221;-68
2021/05/22 18:45:27;;;;;;;1.90;1.00;;;;;;;;;;10540610;28;20188;-68
2021/05/22 18:50:30;;;;;;;2.23;1.13;;;;;;;;;;10530121;28;20570;-68
2021/05/22 18:55:33;;;;;;;5.10;2.20;;;;;;;;;;10534598;28;20208;-68
2021/05/22 19:00:36;;;;;;;5.53;2.87;;;;;;;;;;10516757;28;20223;-69
2021/05/22 19:05:40;;;;;;;4.10;1.40;;;;;;;;;;10521067;28;20192;-70
2021/05/22 19:10:43;;;;;;;6.73;2.47;;;;;;;;;;10524243;28;20298;-67
2021/05/22 19:15:46;;;;;;;3.83;1.37;;;;;;;;;;10521976;28;20294;-69
2021/05/22 19:20:49;;;;;;;5.47;2.20;;;;;;;;;;10521071;28;20226;-68
2021/05/22 19:25:52;;;;;;;4.83;1.77;;;;;;;;;;10524220;28;20215;-68
2021/05/22 19:30:55;;;;;;;2.40;1.33;;;;;;;;;;10518702;28;20243;-70
2021/05/22 19:36:00;;;;;;;4.50;1.80;;;;;;;;;;10526308;28;20280;-69
2021/05/22 19:41:02;;;;;;;4.57;2.03;;;;;;;;;;10523220;28;20317;-70
2021/05/22 19:46:05;;;;;;;4.40;1.40;;;;;;;;;;10531082;27;20284;-69
2021/05/22 19:51:09;;;;;;;4.40;2.03;;;;;;;;;;10528254;28;20290;-70
2021/05/22 19:56:15;;;;;;;3.87;1.47;;;;;;;;;;10527296;28;20215;-70
2021/05/22 20:01:18;;;;;;;1.57;1.30;;;;;;;;;;10525407;28;20244;-70
2021/05/22 20:06:22;;;;;;;3.30;1.60;;;;;;;;;;10524198;28;20691;-70
2021/05/22 20:11:25;;;;;;;2.73;1.10;;;;;;;;;;10524826;28;20264;-69
2021/05/22 20:16:28;;;;;;;5.47;1.50;;;;;;;;;;10528742;28;20204;-69
2021/05/22 20:21:31;;;;;;;3.53;1.60;;;;;;;;;;10527759;28;20215;-69
2021/05/22 20:26:34;;;;;;;3.70;1.40;;;;;;;;;;10527002;28;20192;-69
2021/05/22 20:31:37;;;;;;;2.97;1.30;;;;;;;;;;10522962;28;20213;-70
2021/05/22 20:36:41;;;;;;;4.07;1.30;;;;;;;;;;10524450;28;20216;-68
2021/05/22 20:41:44;;;;;;;3.10;1.30;;;;;;;;;;10520619;28;20723;-68
2021/05/22 20:46:46;;;;;;;3.53;1.10;;;;;;;;;;10523434;28;20207;-70
2021/05/22 20:51:50;;;;;;;3.70;1.33;;;;;;;;;;10541840;28;20270;-69
2021/05/22 20:56:52;;;;;;;2.87;1.23;;;;;;;;;;10527237;28;20622;-71
2021/05/22 21:01:55;;;;;;;3.33;1.40;;;;;;;;;;10525230;28;20327;-70
2021/05/22 21:06:59;;;;;;;5.20;1.93;;;;;;;;;;10522439;28;20192;-69
2021/05/22 21:12:02;;;;;;;3.03;1.30;;;;;;;;;;10529223;28;20358;-69
2021/05/22 21:17:05;;;;;;;1.63;1.00;;;;;;;;;;10530269;28;20255;-68
2021/05/22 21:22:08;;;;;;;2.10;0.73;;;;;;;;;;10532954;28;20230;-69
2021/05/22 21:27:11;;;;;;;3.53;1.60;;;;;;;;;;10531513;28;20728;-69
2021/05/22 21:32:14;;;;;;;2.40;1.27;;;;;;;;;;10535309;28;20648;-68
2021/05/22 21:37:18;;;;;;;3.47;1.10;;;;;;;;;;10524451;28;20232;-68
2021/05/22 21:42:21;;;;;;;3.83;1.37;;;;;;;;;;10528357;28;20637;-69
2021/05/22 21:47:24;;;;;;;3.53;1.33;;;;;;;;;;10534081;28;20188;-69
2021/05/22 21:52:29;;;;;;;2.70;1.20;;;;;;;;;;10544433;28;20239;-68
2021/05/22 21:57:33;;;;;;;2.50;1.10;;;;;;;;;;10535093;28;20207;-66
2021/05/22 22:02:36;;;;;;;3.30;1.30;;;;;;;;;;10531251;28;20222;-69
2021/05/22 22:07:41;;;;;;;2.50;1.10;;;;;;;;;;10534277;28;20199;-69
2021/05/22 22:12:51;;;;;;;2.97;1.23;;;;;;;;;;10529017;28;20668;-69
2021/05/22 22:17:54;;;;;;;2.40;1.30;;;;;;;;;;10520412;28;20212;-70
2021/05/22 22:22:58;;;;;;;4.27;1.10;;;;;;;;;;10517112;28;20289;-69
2021/05/22 22:28:00;;;;;;;1.90;1.27;;;;;;;;;;10529317;28;20647;-67
2021/05/22 22:33:03;;;;;;;2.97;1.10;;;;;;;;;;10535803;28;20306;-70
2021/05/22 22:38:07;;;;;;;3.70;1.30;;;;;;;;;;10525107;28;20702;-69
2021/05/22 22:43:11;;;;;;;2.53;1.40;;;;;;;;;;10527551;28;20223;-69
2021/05/22 22:48:13;;;;;;;3.03;1.20;;;;;;;;;;10529066;28;20188;-70
2021/05/22 22:53:17;;;;;;;4.57;1.33;;;;;;;;;;10518843;28;20697;-70
2021/05/22 22:58:20;;;;;;;2.37;1.07;;;;;;;;;;10532755;28;20207;-70
2021/05/22 23:03:22;;;;;;;3.97;1.50;;;;;;;;;;10526402;28;20204;-69
2021/05/22 23:08:28;;;;;;;2.57;1.17;;;;;;;;;;10527323;28;20729;-70
2021/05/22 23:13:32;;;;;;;1.97;1.10;;;;;;;;;;10519686;28;20220;-70
2021/05/22 23:18:36;;;;;;;3.23;1.23;;;;;;;;;;10525619;28;20215;-70
2021/05/22 23:23:39;;;;;;;3.43;1.30;;;;;;;;;;10516842;28;20624;-70
2021/05/22 23:28:42;;;;;;;5.57;1.40;;;;;;;;;;10526201;28;20192;-68
2021/05/22 23:33:44;;;;;;;2.03;1.07;;;;;;;;;;10522525;28;20639;-69
2021/05/22 23:38:48;;;;;;;2.57;1.20;;;;;;;;;;10530591;28;20219;-68
2021/05/22 23:43:51;;;;;;;3.03;1.10;;;;;;;;;;10526079;28;20215;-70
2021/05/22 23:48:54;;;;;;;2.70;1.10;;;;;;;;;;10522035;28;20196;-69
2021/05/22 23:53:58;;;;;;;2.27;1.20;;;;;;;;;;10521078;28;20212;-69
2021/05/22 23:59:00;;;;;;;2.20;1.20;;;;;;;;;;10535171;28;20257;-69
